ENTC/TOS METAR and TAF weather

Enter ICAO airport designator
Station Type Date Time Source
ENTC METAR 2021/10/22 19:50 UTC NOAA

ENTC 221950Z 12003KT 9999 SCT053 M01/M07 Q1003 NOSIG RMK WIND 2600FT 15009KT


Station Type Date Time Source
ENTC Decoded METAR 2021/10/22 19:50 UTC NOAA

Tromso / Langnes, Norway (ENTC) 69-41N 018-55E 10M
Oct 22, 2021 - 03:50 PM EDT / 2021.10.22 1950 UTC
Wind: from the ESE (120 degrees) at 3 MPH (3 KT):0
Visibility: greater than 7 mile(s):0
Sky conditions: partly cloudy
Temperature: 30 F (-1 C)
Dew Point: 19 F (-7 C)
Relative Humidity: 63%
Pressure (altimeter): 29.62 in. Hg (1003 hPa)
ob: ENTC 221950Z 12003KT 9999 SCT053 M01/M07 Q1003 NOSIG RMK WIND 2600FT 15009KT
cycle: 20

Station Type Date Time Source
ENTC TAF 2021/10/22 18:59 UTC NOAA

TAF ENTC 221700Z 2218/2318 04008KT 9999 BKN050
BECMG 2300/2303 22010KT

Example: see airport list